Terminal Aerodrome Forecast
Issued by NWS

Home | Current Version | Previous Version | Text Only | Print | Product List | Glossary On
Versions: 1 2 3 4 5 6 7 8 9 10 11 12 13 14 15 16 17
000
FTUS41 KGYX 271729
TAFAUG
TAF
KAUG 271729Z 2718/2818 17012KT P6SM SCT050 OVC250
      TEMPO 2722/2801 1SM +TSRA BKN025CB
     FM280100 19007KT P6SM OVC100
     FM280600 19008KT 6SM BR OVC015
     FM280900 19004KT 1/2SM FG OVC002
     FM281300 22012G20KT P6SM BKN250=

USA.gov is the U.S. government's official web portal to all federal, state and local government web resources and services.